sensor_id;sensor_type;location;lat;lon;timestamp;pressure;altitude;pressure_sealevel;temperature;humidity
35045;BME280;21231;48.394;34.964;2022-10-26T00:00:10;126349.34;;;11.38;nan
35045;BME280;21231;48.394;34.964;2022-10-26T00:02:56;126347.94;;;11.36;nan
35045;BME280;21231;48.394;34.964;2022-10-26T00:05:43;126333.28;;;11.33;nan
35045;BME280;21231;48.394;34.964;2022-10-26T00:08:29;126324.00;;;11.33;nan
35045;BME280;21231;48.394;34.964;2022-10-26T00:11:15;126321.44;;;11.33;nan
35045;BME280;21231;48.394;34.964;2022-10-26T00:14:01;126311.91;;;11.29;nan
35045;BME280;21231;48.394;34.964;2022-10-26T00:16:47;126299.50;;;11.31;nan
35045;BME280;21231;48.394;34.964;2022-10-26T00:19:33;126305.44;;;11.34;nan
35045;BME280;21231;48.394;34.964;2022-10-26T00:22:19;126303.63;;;11.30;nan
35045;BME280;21231;48.394;34.964;2022-10-26T00:25:05;126298.50;;;11.30;nan
35045;BME280;21231;48.394;34.964;2022-10-26T00:27:51;126288.97;;;11.27;nan
35045;BME280;21231;48.394;34.964;2022-10-26T00:30:38;126293.09;;;11.26;nan
35045;BME280;21231;48.394;34.964;2022-10-26T00:33:24;126283.00;;;11.24;nan
35045;BME280;21231;48.394;34.964;2022-10-26T00:36:11;126284.56;;;11.23;nan
35045;BME280;21231;48.394;34.964;2022-10-26T00:38:59;126285.56;;;11.24;nan
35045;BME280;21231;48.394;34.964;2022-10-26T00:41:45;126281.00;;;11.23;nan
35045;BME280;21231;48.394;34.964;2022-10-26T00:44:55;126271.72;;;11.23;nan
35045;BME280;21231;48.394;34.964;2022-10-26T00:47:45;126264.00;;;11.23;nan
35045;BME280;21231;48.394;34.964;2022-10-26T00:50:42;126267.16;;;11.22;nan
35045;BME280;21231;48.394;34.964;2022-10-26T00:53:31;126262.03;;;11.22;nan
35045;BME280;21231;48.394;34.964;2022-10-26T00:56:17;126258.50;;;11.22;nan
35045;BME280;21231;48.394;34.964;2022-10-26T00:59:05;126263.63;;;11.22;nan
35045;BME280;21231;48.394;34.964;2022-10-26T01:01:53;126256.47;;;11.21;nan
35045;BME280;21231;48.394;34.964;2022-10-26T01:04:39;126238.09;;;11.19;nan
35045;BME280;21231;48.394;34.964;2022-10-26T01:07:26;126232.56;;;11.17;nan
35045;BME280;21231;48.394;34.964;2022-10-26T01:10:12;126237.72;;;11.17;nan
35045;BME280;21231;48.394;34.964;2022-10-26T01:12:58;126216.75;;;11.16;nan
35045;BME280;21231;48.394;34.964;2022-10-26T01:16:06;126224.63;;;11.13;nan
35045;BME280;21231;48.394;34.964;2022-10-26T01:27:54;126215.75;;;10.99;nan
35045;BME280;21231;48.394;34.964;2022-10-26T01:30:44;126210.94;;;10.94;nan
35045;BME280;21231;48.394;34.964;2022-10-26T01:33:40;126213.25;;;10.90;nan
35045;BME280;21231;48.394;34.964;2022-10-26T01:36:33;126212.25;;;10.89;nan
35045;BME280;21231;48.394;34.964;2022-10-26T01:39:30;126205.72;;;10.87;nan
35045;BME280;21231;48.394;34.964;2022-10-26T01:42:21;126197.19;;;10.84;nan
35045;BME280;21231;48.394;34.964;2022-10-26T01:45:09;126188.50;;;10.84;nan
35045;BME280;21231;48.394;34.964;2022-10-26T01:47:58;126190.09;;;10.83;nan
35045;BME280;21231;48.394;34.964;2022-10-26T01:50:50;126187.94;;;10.85;nan
35045;BME280;21231;48.394;34.964;2022-10-26T01:53:45;126182.22;;;10.86;nan
35045;BME280;21231;48.394;34.964;2022-10-26T01:56:35;126186.19;;;10.88;nan
35045;BME280;21231;48.394;34.964;2022-10-26T02:05:28;126183.28;;;10.93;nan
35045;BME280;21231;48.394;34.964;2022-10-26T02:08:26;126178.16;;;10.93;nan
35045;BME280;21231;48.394;34.964;2022-10-26T02:11:37;126170.63;;;10.90;nan
35045;BME280;21231;48.394;34.964;2022-10-26T02:14:48;126171.47;;;10.94;nan
35045;BME280;21231;48.394;34.964;2022-10-26T02:20:40;126167.88;;;10.93;nan
35045;BME280;21231;48.394;34.964;2022-10-26T02:23:28;126170.31;;;10.96;nan
35045;BME280;21231;48.394;34.964;2022-10-26T02:26:21;126168.72;;;10.96;nan
35045;BME280;21231;48.394;34.964;2022-10-26T02:29:12;126168.56;;;10.99;nan
35045;BME280;21231;48.394;34.964;2022-10-26T02:32:01;126165.00;;;10.98;nan
35045;BME280;21231;48.394;34.964;2022-10-26T02:34:49;126162.84;;;11.00;nan
35045;BME280;21231;48.394;34.964;2022-10-26T02:37:37;126168.81;;;11.03;nan
35045;BME280;21231;48.394;34.964;2022-10-26T02:40:26;126164.25;;;11.02;nan
35045;BME280;21231;48.394;34.964;2022-10-26T02:43:15;126154.84;;;11.05;nan
35045;BME280;21231;48.394;34.964;2022-10-26T02:46:10;126164.34;;;11.09;nan
35045;BME280;21231;48.394;34.964;2022-10-26T02:48:58;126165.75;;;11.11;nan
35045;BME280;21231;48.394;34.964;2022-10-26T02:55:06;126159.44;;;11.13;nan
35045;BME280;21231;48.394;34.964;2022-10-26T02:58:01;126158.28;;;11.15;nan
35045;BME280;21231;48.394;34.964;2022-10-26T03:00:49;126157.72;;;11.16;nan
35045;BME280;21231;48.394;34.964;2022-10-26T03:03:35;126159.13;;;11.18;nan
35045;BME280;21231;48.394;34.964;2022-10-26T03:06:22;126162.53;;;11.21;nan
35045;BME280;21231;48.394;34.964;2022-10-26T03:09:08;126155.81;;;11.22;nan
35045;BME280;21231;48.394;34.964;2022-10-26T03:11:54;126150.09;;;11.23;nan
35045;BME280;21231;48.394;34.964;2022-10-26T03:14:40;126158.22;;;11.24;nan
35045;BME280;21231;48.394;34.964;2022-10-26T03:17:26;126152.09;;;11.24;nan
35045;BME280;21231;48.394;34.964;2022-10-26T03:20:12;126150.09;;;11.23;nan
35045;BME280;21231;48.394;34.964;2022-10-26T03:22:57;126145.56;;;11.22;nan
35045;BME280;21231;48.394;34.964;2022-10-26T03:25:43;126137.44;;;11.20;nan
35045;BME280;21231;48.394;34.964;2022-10-26T03:28:29;126129.16;;;11.21;nan
35045;BME280;21231;48.394;34.964;2022-10-26T03:31:15;126127.97;;;11.23;nan
35045;BME280;21231;48.394;34.964;2022-10-26T03:34:01;126118.28;;;11.22;nan
35045;BME280;21231;48.394;34.964;2022-10-26T03:36:48;126115.13;;;11.23;nan
35045;BME280;21231;48.394;34.964;2022-10-26T03:39:33;126111.78;;;11.20;nan
35045;BME280;21231;48.394;34.964;2022-10-26T03:42:19;126118.28;;;11.22;nan
35045;BME280;21231;48.394;34.964;2022-10-26T03:45:06;126115.72;;;11.22;nan
35045;BME280;21231;48.394;34.964;2022-10-26T03:47:52;126110.00;;;11.23;nan
35045;BME280;21231;48.394;34.964;2022-10-26T03:50:38;126111.59;;;11.23;nan
35045;BME280;21231;48.394;34.964;2022-10-26T03:53:24;126113.56;;;11.24;nan
35045;BME280;21231;48.394;34.964;2022-10-26T03:56:10;126108.03;;;11.22;nan
35045;BME280;21231;48.394;34.964;2022-10-26T03:58:56;126108.44;;;11.24;nan
35045;BME280;21231;48.394;34.964;2022-10-26T04:01:42;126111.00;;;11.24;nan
35045;BME280;21231;48.394;34.964;2022-10-26T04:04:28;126111.44;;;11.25;nan
35045;BME280;21231;48.394;34.964;2022-10-26T04:07:14;126095.59;;;11.24;nan
35045;BME280;21231;48.394;34.964;2022-10-26T04:10:00;126095.59;;;11.24;nan
35045;BME280;21231;48.394;34.964;2022-10-26T04:12:47;126103.13;;;11.26;nan
35045;BME280;21231;48.394;34.964;2022-10-26T04:15:33;126101.00;;;11.28;nan
35045;BME280;21231;48.394;34.964;2022-10-26T04:18:19;126098.84;;;11.29;nan
35045;BME280;21231;48.394;34.964;2022-10-26T04:21:05;126104.81;;;11.33;nan
35045;BME280;21231;48.394;34.964;2022-10-26T04:23:50;126097.50;;;11.34;nan
35045;BME280;21231;48.394;34.964;2022-10-26T04:26:36;126130.31;;;11.35;nan
35045;BME280;21231;48.394;34.964;2022-10-26T04:29:22;126130.13;;;11.38;nan
35045;BME280;21231;48.394;34.964;2022-10-26T04:32:08;126123.41;;;11.38;nan
35045;BME280;21231;48.394;34.964;2022-10-26T04:34:54;126115.53;;;11.41;nan
35045;BME280;21231;48.394;34.964;2022-10-26T04:37:40;126120.91;;;11.45;nan
35045;BME280;21231;48.394;34.964;2022-10-26T04:40:27;126123.34;;;11.48;nan
35045;BME280;21231;48.394;34.964;2022-10-26T04:43:13;126117.63;;;11.49;nan
35045;BME280;21231;48.394;34.964;2022-10-26T04:45:59;126123.19;;;11.50;nan
35045;BME280;21231;48.394;34.964;2022-10-26T04:48:47;126119.00;;;11.51;nan
35045;BME280;21231;48.394;34.964;2022-10-26T04:51:33;126121.00;;;11.52;nan
35045;BME280;21231;48.394;34.964;2022-10-26T04:54:19;126119.44;;;11.52;nan
35045;BME280;21231;48.394;34.964;2022-10-26T04:57:05;126118.84;;;11.53;nan
35045;BME280;21231;48.394;34.964;2022-10-26T04:59:51;126119.84;;;11.54;nan
35045;BME280;21231;48.394;34.964;2022-10-26T05:02:36;126122.25;;;11.56;nan
35045;BME280;21231;48.394;34.964;2022-10-26T05:05:22;126120.50;;;11.60;nan
35045;BME280;21231;48.394;34.964;2022-10-26T05:08:08;126122.50;;;11.61;nan
35045;BME280;21231;48.394;34.964;2022-10-26T05:10:54;126117.78;;;11.62;nan
35045;BME280;21231;48.394;34.964;2022-10-26T05:13:41;126131.03;;;11.64;nan
35045;BME280;21231;48.394;34.964;2022-10-26T05:16:26;126122.75;;;11.65;nan
35045;BME280;21231;48.394;34.964;2022-10-26T05:19:12;126130.69;;;11.69;nan
35045;BME280;21231;48.394;34.964;2022-10-26T05:21:58;126128.13;;;11.69;nan
35045;BME280;21231;48.394;34.964;2022-10-26T05:24:44;126135.06;;;11.73;nan
35045;BME280;21231;48.394;34.964;2022-10-26T05:27:30;126132.91;;;11.74;nan
35045;BME280;21231;48.394;34.964;2022-10-26T05:30:16;126139.66;;;11.74;nan
35045;BME280;21231;48.394;34.964;2022-10-26T05:33:02;126135.72;;;11.78;nan
35045;BME280;21231;48.394;34.964;2022-10-26T05:35:52;126134.59;;;11.80;nan
35045;BME280;21231;48.394;34.964;2022-10-26T05:38:38;126147.28;;;11.83;nan
35045;BME280;21231;48.394;34.964;2022-10-26T05:41:25;126142.53;;;11.85;nan
35045;BME280;21231;48.394;34.964;2022-10-26T05:44:11;126145.91;;;11.88;nan
35045;BME280;21231;48.394;34.964;2022-10-26T05:46:57;126145.91;;;11.88;nan
35045;BME280;21231;48.394;34.964;2022-10-26T05:49:43;126146.16;;;11.92;nan
35045;BME280;21231;48.394;34.964;2022-10-26T05:52:29;126150.16;;;11.94;nan
35045;BME280;21231;48.394;34.964;2022-10-26T05:55:16;126143.25;;;11.97;nan
35045;BME280;21231;48.394;34.964;2022-10-26T05:58:02;126136.97;;;11.99;nan
35045;BME280;21231;48.394;34.964;2022-10-26T06:01:11;126142.94;;;12.02;nan
35045;BME280;21231;48.394;34.964;2022-10-26T06:07:16;126148.91;;;12.05;nan
35045;BME280;21231;48.394;34.964;2022-10-26T06:10:03;126181.41;;;12.12;nan
35045;BME280;21231;48.394;34.964;2022-10-26T06:12:49;126177.66;;;12.14;nan
35045;BME280;21231;48.394;34.964;2022-10-26T06:15:51;126175.50;;;12.15;nan
35045;BME280;21231;48.394;34.964;2022-10-26T06:25:16;126191.59;;;12.21;nan
35045;BME280;21231;48.394;34.964;2022-10-26T06:31:00;126187.19;;;12.27;nan
35045;BME280;21231;48.394;34.964;2022-10-26T06:33:46;126192.16;;;12.29;nan
35045;BME280;21231;48.394;34.964;2022-10-26T06:36:32;126187.84;;;12.32;nan
35045;BME280;21231;48.394;34.964;2022-10-26T06:39:18;126187.50;;;12.38;nan
35045;BME280;21231;48.394;34.964;2022-10-26T06:42:05;126188.34;;;12.41;nan
35045;BME280;21231;48.394;34.964;2022-10-26T06:44:52;126194.72;;;12.45;nan
35045;BME280;21231;48.394;34.964;2022-10-26T06:50:52;126195.97;;;12.50;nan
35045;BME280;21231;48.394;34.964;2022-10-26T06:56:31;126198.47;;;12.59;nan
35045;BME280;21231;48.394;34.964;2022-10-26T06:59:34;126197.72;;;12.63;nan
35045;BME280;21231;48.394;34.964;2022-10-26T07:02:22;126225.28;;;12.67;nan
35045;BME280;21231;48.394;34.964;2022-10-26T07:05:08;126232.84;;;12.69;nan
35045;BME280;21231;48.394;34.964;2022-10-26T07:07:58;126237.81;;;12.72;nan
35045;BME280;21231;48.394;34.964;2022-10-26T07:10:45;126238.06;;;12.76;nan
35045;BME280;21231;48.394;34.964;2022-10-26T07:13:31;126232.91;;;12.76;nan
35045;BME280;21231;48.394;34.964;2022-10-26T07:16:17;126239.03;;;12.77;nan
35045;BME280;21231;48.394;34.964;2022-10-26T07:19:03;126242.03;;;12.78;nan
35045;BME280;21231;48.394;34.964;2022-10-26T07:21:49;126236.31;;;12.79;nan
35045;BME280;21231;48.394;34.964;2022-10-26T07:24:35;126243.03;;;12.79;nan
35045;BME280;21231;48.394;34.964;2022-10-26T07:27:21;126239.88;;;12.80;nan
35045;BME280;21231;48.394;34.964;2022-10-26T07:30:09;126236.72;;;12.81;nan
35045;BME280;21231;48.394;34.964;2022-10-26T07:33:00;126236.16;;;12.82;nan
35045;BME280;21231;48.394;34.964;2022-10-26T07:35:46;126230.28;;;12.85;nan
35045;BME280;21231;48.394;34.964;2022-10-26T07:38:32;126225.13;;;12.85;nan
35045;BME280;21231;48.394;34.964;2022-10-26T07:41:18;126235.09;;;12.91;nan
35045;BME280;21231;48.394;34.964;2022-10-26T07:44:05;126239.47;;;12.94;nan
35045;BME280;21231;48.394;34.964;2022-10-26T07:46:51;126234.31;;;12.94;nan
35045;BME280;21231;48.394;34.964;2022-10-26T07:49:37;126235.59;;;12.99;nan
35045;BME280;21231;48.394;34.964;2022-10-26T07:52:23;126237.00;;;13.01;nan
35045;BME280;21231;48.394;34.964;2022-10-26T07:55:10;126237.16;;;12.98;nan
35045;BME280;21231;48.394;34.964;2022-10-26T07:57:56;126257.50;;;12.94;nan
35045;BME280;21231;48.394;34.964;2022-10-26T08:00:43;126254.66;;;12.90;nan
35045;BME280;21231;48.394;34.964;2022-10-26T08:03:29;126249.69;;;12.87;nan
35045;BME280;21231;48.394;34.964;2022-10-26T08:06:15;126258.25;;;12.91;nan
35045;BME280;21231;48.394;34.964;2022-10-26T08:09:01;126258.25;;;12.91;nan
35045;BME280;21231;48.394;34.964;2022-10-26T08:11:47;126263.22;;;12.93;nan
35045;BME280;21231;48.394;34.964;2022-10-26T08:14:33;126264.22;;;12.94;nan
35045;BME280;21231;48.394;34.964;2022-10-26T08:17:19;126263.91;;;12.99;nan
35045;BME280;21231;48.394;34.964;2022-10-26T08:20:06;126262.16;;;13.02;nan
35045;BME280;21231;48.394;34.964;2022-10-26T08:22:55;126257.44;;;13.04;nan
35045;BME280;21231;48.394;34.964;2022-10-26T08:25:41;126267.31;;;13.02;nan
35045;BME280;21231;48.394;34.964;2022-10-26T08:28:28;126261.59;;;13.03;nan
35045;BME280;21231;48.394;34.964;2022-10-26T08:31:14;126260.28;;;13.08;nan
35045;BME280;21231;48.394;34.964;2022-10-26T08:34:00;126264.09;;;13.12;nan
35045;BME280;21231;48.394;34.964;2022-10-26T08:36:46;126267.09;;;13.14;nan
35045;BME280;21231;48.394;34.964;2022-10-26T08:39:32;126270.66;;;13.15;nan
35045;BME280;21231;48.394;34.964;2022-10-26T08:42:23;126276.47;;;13.20;nan
35045;BME280;21231;48.394;34.964;2022-10-26T08:45:25;126277.63;;;13.18;nan
35045;BME280;21231;48.394;34.964;2022-10-26T08:48:24;126278.91;;;13.23;nan
35045;BME280;21231;48.394;34.964;2022-10-26T08:51:24;126282.72;;;13.28;nan
35045;BME280;21231;48.394;34.964;2022-10-26T08:57:18;126285.63;;;13.22;nan
35045;BME280;21231;48.394;34.964;2022-10-26T09:00:11;126285.19;;;13.21;nan
35045;BME280;21231;48.394;34.964;2022-10-26T09:02:57;126289.50;;;13.18;nan
35045;BME280;21231;48.394;34.964;2022-10-26T09:09:12;126294.13;;;13.09;nan
35045;BME280;21231;48.394;34.964;2022-10-26T09:12:21;126291.00;;;13.10;nan
35045;BME280;21231;48.394;34.964;2022-10-26T09:23:58;126296.31;;;13.08;nan
35045;BME280;21231;48.394;34.964;2022-10-26T09:26:59;126294.88;;;13.06;nan
35045;BME280;21231;48.394;34.964;2022-10-26T09:29:47;126292.91;;;13.05;nan
35045;BME280;21231;48.394;34.964;2022-10-26T09:32:38;126295.72;;;13.09;nan
35045;BME280;21231;48.394;34.964;2022-10-26T09:35:34;126291.88;;;13.04;nan
35045;BME280;21231;48.394;34.964;2022-10-26T09:38:37;126299.34;;;13.00;nan
35045;BME280;21231;48.394;34.964;2022-10-26T09:41:30;126292.22;;;12.99;nan
35045;BME280;21231;48.394;34.964;2022-10-26T09:44:29;126297.53;;;12.96;nan
35045;BME280;21231;48.394;34.964;2022-10-26T09:47:26;126298.66;;;12.94;nan
35045;BME280;21231;48.394;34.964;2022-10-26T09:53:00;126292.44;;;12.87;nan
35045;BME280;21231;48.394;34.964;2022-10-26T09:55:47;126291.28;;;12.89;nan
35045;BME280;21231;48.394;34.964;2022-10-26T09:58:44;126298.28;;;12.93;nan
35045;BME280;21231;48.394;34.964;2022-10-26T10:01:34;126298.13;;;12.95;nan
35045;BME280;21231;48.394;34.964;2022-10-26T10:04:30;126289.81;;;12.96;nan
35045;BME280;21231;48.394;34.964;2022-10-26T10:07:16;126298.38;;;12.99;nan
35045;BME280;21231;48.394;34.964;2022-10-26T10:10:16;126298.13;;;12.95;nan
35045;BME280;21231;48.394;34.964;2022-10-26T10:13:18;126302.25;;;12.95;nan
35045;BME280;21231;48.394;34.964;2022-10-26T10:18:53;126303.09;;;12.98;nan
35045;BME280;21231;48.394;34.964;2022-10-26T10:21:47;126297.44;;;12.90;nan
35045;BME280;21231;48.394;34.964;2022-10-26T10:24:36;126300.72;;;12.86;nan
35045;BME280;21231;48.394;34.964;2022-10-26T10:27:23;126300.63;;;12.79;nan
35045;BME280;21231;48.394;34.964;2022-10-26T10:30:30;126302.75;;;12.87;nan
35045;BME280;21231;48.394;34.964;2022-10-26T10:33:17;126300.88;;;12.83;nan
35045;BME280;21231;48.394;34.964;2022-10-26T10:36:09;126299.00;;;12.89;nan
35045;BME280;21231;48.394;34.964;2022-10-26T10:39:23;126308.50;;;13.02;nan
35045;BME280;21231;48.394;34.964;2022-10-26T10:42:13;126309.56;;;13.09;nan
35045;BME280;21231;48.394;34.964;2022-10-26T10:45:02;126311.16;;;13.09;nan
35045;BME280;21231;48.394;34.964;2022-10-26T10:51:03;126311.59;;;13.10;nan
35045;BME280;21231;48.394;34.964;2022-10-26T10:53:52;126319.88;;;13.09;nan
35045;BME280;21231;48.394;34.964;2022-10-26T10:56:41;126312.06;;;13.03;nan
35045;BME280;21231;48.394;34.964;2022-10-26T11:00:02;126310.81;;;12.98;nan
35045;BME280;21231;48.394;34.964;2022-10-26T11:06:04;126314.69;;;12.93;nan
35045;BME280;21231;48.394;34.964;2022-10-26T11:09:02;126310.13;;;12.92;nan
35045;BME280;21231;48.394;34.964;2022-10-26T11:11:53;126318.03;;;12.90;nan
35045;BME280;21231;48.394;34.964;2022-10-26T11:14:44;126308.06;;;12.84;nan
35045;BME280;21231;48.394;34.964;2022-10-26T11:20:40;126316.38;;;12.74;nan
35045;BME280;21231;48.394;34.964;2022-10-26T11:23:33;126318.25;;;12.78;nan
35045;BME280;21231;48.394;34.964;2022-10-26T11:26:30;126315.81;;;12.75;nan
35045;BME280;21231;48.394;34.964;2022-10-26T11:32:43;126323.28;;;12.71;nan
35045;BME280;21231;48.394;34.964;2022-10-26T11:35:45;126326.16;;;12.66;nan
35045;BME280;21231;48.394;34.964;2022-10-26T11:39:07;126333.31;;;12.67;nan
35045;BME280;21231;48.394;34.964;2022-10-26T11:42:00;126333.59;;;12.71;nan
35045;BME280;21231;48.394;34.964;2022-10-26T11:44:56;126332.75;;;12.68;nan
35045;BME280;21231;48.394;34.964;2022-10-26T11:47:56;126329.41;;;12.71;nan
35045;BME280;21231;48.394;34.964;2022-10-26T11:50:49;126336.72;;;12.70;nan
35045;BME280;21231;48.394;34.964;2022-10-26T11:53:39;126333.09;;;12.53;nan
35045;BME280;21231;48.394;34.964;2022-10-26T11:56:34;126333.75;;;12.43;nan
35045;BME280;21231;48.394;34.964;2022-10-26T11:59:25;126328.78;;;12.40;nan
35045;BME280;21231;48.394;34.964;2022-10-26T12:02:22;126327.75;;;12.40;nan
35045;BME280;21231;48.394;34.964;2022-10-26T12:08:42;126343.44;;;12.44;nan
35045;BME280;21231;48.394;34.964;2022-10-26T12:15:31;126346.78;;;12.40;nan
35045;BME280;21231;48.394;34.964;2022-10-26T14:39:43;100056.91;;;11.80;100.00
35045;BME280;21231;48.394;34.964;2022-10-26T14:42:38;100064.75;;;11.81;100.00
35045;BME280;21231;48.394;34.964;2022-10-26T14:45:36;100061.34;;;11.82;100.00
35045;BME280;21231;48.394;34.964;2022-10-26T14:48:41;100068.19;;;11.82;100.00
35045;BME280;21231;48.394;34.964;2022-10-26T14:51:34;100072.41;;;11.80;100.00
35045;BME280;21231;48.394;34.964;2022-10-26T14:54:23;100079.03;;;11.75;100.00
35045;BME280;21231;48.394;34.964;2022-10-26T14:57:30;100081.53;;;11.73;100.00
35045;BME280;21231;48.394;34.964;2022-10-26T15:00:24;100086.72;;;11.73;100.00
35045;BME280;21231;48.394;34.964;2022-10-26T15:03:15;100090.84;;;11.69;100.00
35045;BME280;21231;48.394;34.964;2022-10-26T15:09:38;100091.06;;;11.74;100.00
35045;BME280;21231;48.394;34.964;2022-10-26T15:12:34;100096.94;;;11.72;100.00
35045;BME280;21231;48.394;34.964;2022-10-26T15:15:21;100100.44;;;11.72;100.00
35045;BME280;21231;48.394;34.964;2022-10-26T15:18:41;100105.59;;;11.72;100.00
35045;BME280;21231;48.394;34.964;2022-10-26T15:21:34;100108.09;;;11.70;100.00
35045;BME280;21231;48.394;34.964;2022-10-26T15:24:37;100098.50;;;11.68;100.00
35045;BME280;21231;48.394;34.964;2022-10-26T15:27:23;100108.00;;;11.69;100.00
35045;BME280;21231;48.394;34.964;2022-10-26T15:30:23;100106.25;;;11.68;100.00
35045;BME280;21231;48.394;34.964;2022-10-26T15:33:20;100119.28;;;11.71;100.00
35045;BME280;21231;48.394;34.964;2022-10-26T15:36:23;100111.34;;;11.66;100.00
35045;BME280;21231;48.394;34.964;2022-10-26T15:39:09;100107.13;;;11.68;100.00
35045;BME280;21231;48.394;34.964;2022-10-26T15:41:55;100118.44;;;11.70;100.00
35045;BME280;21231;48.394;34.964;2022-10-26T15:44:41;100125.44;;;11.73;100.00
35045;BME280;21231;48.394;34.964;2022-10-26T15:47:31;100122.69;;;11.70;100.00
35045;BME280;21231;48.394;34.964;2022-10-26T15:50:23;100129.56;;;11.69;100.00
35045;BME280;21231;48.394;34.964;2022-10-26T15:53:15;100130.34;;;11.68;100.00
35045;BME280;21231;48.394;34.964;2022-10-26T15:56:13;100137.31;;;11.69;100.00
35045;BME280;21231;48.394;34.964;2022-10-26T15:59:00;100132.84;;;11.67;100.00
35045;BME280;21231;48.394;34.964;2022-10-26T16:01:46;100135.50;;;11.68;100.00
35045;BME280;21231;48.394;34.964;2022-10-26T16:04:32;100139.81;;;11.68;100.00
35045;BME280;21231;48.394;34.964;2022-10-26T16:07:24;100136.41;;;11.69;100.00
35045;BME280;21231;48.394;34.964;2022-10-26T16:10:13;100138.69;;;11.63;100.00
35045;BME280;21231;48.394;34.964;2022-10-26T16:13:01;100138.81;;;11.66;100.00
35045;BME280;21231;48.394;34.964;2022-10-26T16:15:47;100143.13;;;11.65;100.00
35045;BME280;21231;48.394;34.964;2022-10-26T16:18:33;100137.88;;;11.64;100.00
35045;BME280;21231;48.394;34.964;2022-10-26T16:21:20;100142.22;;;11.65;100.00
35045;BME280;21231;48.394;34.964;2022-10-26T16:24:06;100143.84;;;11.63;100.00
35045;BME280;21231;48.394;34.964;2022-10-26T16:26:53;100146.56;;;11.66;100.00
35045;BME280;21231;48.394;34.964;2022-10-26T16:29:39;100145.06;;;11.69;100.00
35045;BME280;21231;48.394;34.964;2022-10-26T16:32:25;100147.56;;;11.68;100.00
35045;BME280;21231;48.394;34.964;2022-10-26T16:35:11;100148.13;;;11.62;100.00
35045;BME280;21231;48.394;34.964;2022-10-26T16:37:58;100147.97;;;11.59;100.00
35045;BME280;21231;48.394;34.964;2022-10-26T16:40:47;100145.47;;;11.61;100.00
35045;BME280;21231;48.394;34.964;2022-10-26T16:43:38;100144.50;;;11.59;100.00
35045;BME280;21231;48.394;34.964;2022-10-26T16:46:24;100153.19;;;11.61;100.00
35045;BME280;21231;48.394;34.964;2022-10-26T16:49:11;100145.63;;;11.64;100.00
35045;BME280;21231;48.394;34.964;2022-10-26T16:51:56;100157.63;;;11.63;100.00
35045;BME280;21231;48.394;34.964;2022-10-26T16:54:43;100149.06;;;11.64;100.00
35045;BME280;21231;48.394;34.964;2022-10-26T16:57:29;100152.47;;;11.63;100.00
35045;BME280;21231;48.394;34.964;2022-10-26T17:00:16;100143.03;;;11.64;100.00
35045;BME280;21231;48.394;34.964;2022-10-26T17:03:02;100153.38;;;11.64;100.00
35045;BME280;21231;48.394;34.964;2022-10-26T17:05:59;100148.22;;;11.64;100.00
35045;BME280;21231;48.394;34.964;2022-10-26T17:08:46;100148.78;;;11.58;100.00
35045;BME280;21231;48.394;34.964;2022-10-26T17:11:32;100144.50;;;11.59;100.00
35045;BME280;21231;48.394;34.964;2022-10-26T17:14:18;100145.22;;;11.56;100.00
35045;BME280;21231;48.394;34.964;2022-10-26T17:17:08;100145.84;;;11.52;100.00
35045;BME280;21231;48.394;34.964;2022-10-26T17:19:54;100144.19;;;11.52;100.00
35045;BME280;21231;48.394;34.964;2022-10-26T17:22:41;100145.84;;;11.52;100.00
35045;BME280;21231;48.394;34.964;2022-10-26T17:25:27;100144.19;;;11.52;100.00
35045;BME280;21231;48.394;34.964;2022-10-26T17:28:13;100144.19;;;11.52;100.00
35045;BME280;21231;48.394;34.964;2022-10-26T17:31:13;100140.69;;;11.52;100.00
35045;BME280;21231;48.394;34.964;2022-10-26T17:34:03;100136.34;;;11.51;100.00
35045;BME280;21231;48.394;34.964;2022-10-26T17:36:49;100137.25;;;11.51;100.00
35045;BME280;21231;48.394;34.964;2022-10-26T17:39:35;100133.69;;;11.49;100.00
35045;BME280;21231;48.394;34.964;2022-10-26T17:42:22;100131.91;;;11.48;100.00
35045;BME280;21231;48.394;34.964;2022-10-26T17:45:08;100132.94;;;11.52;100.00
35045;BME280;21231;48.394;34.964;2022-10-26T17:47:55;100136.50;;;11.54;100.00
35045;BME280;21231;48.394;34.964;2022-10-26T17:50:41;100132.94;;;11.52;100.00
35045;BME280;21231;48.394;34.964;2022-10-26T17:53:28;100131.09;;;11.49;100.00
35045;BME280;21231;48.394;34.964;2022-10-26T17:56:16;100137.41;;;11.54;100.00
35045;BME280;21231;48.394;34.964;2022-10-26T17:59:08;100139.91;;;11.53;100.00
35045;BME280;21231;48.394;34.964;2022-10-26T18:01:54;100135.41;;;11.49;100.00
35045;BME280;21231;48.394;34.964;2022-10-26T18:04:41;100142.25;;;11.48;100.00
35045;BME280;21231;48.394;34.964;2022-10-26T18:07:28;100138.53;;;11.43;100.00
35045;BME280;21231;48.394;34.964;2022-10-26T18:10:14;100147.81;;;11.39;100.00
35045;BME280;21231;48.394;34.964;2022-10-26T18:13:20;100141.78;;;11.39;100.00
35045;BME280;21231;48.394;34.964;2022-10-26T18:16:09;100144.44;;;11.40;100.00
35045;BME280;21231;48.394;34.964;2022-10-26T18:18:58;100150.53;;;11.42;100.00
35045;BME280;21231;48.394;34.964;2022-10-26T18:21:46;100143.69;;;11.43;100.00
35045;BME280;21231;48.394;34.964;2022-10-26T18:24:32;100160.09;;;11.43;100.00
35045;BME280;21231;48.394;34.964;2022-10-26T18:27:20;100151.53;;;11.44;100.00
35045;BME280;21231;48.394;34.964;2022-10-26T18:30:06;100147.88;;;11.41;100.00
35045;BME280;21231;48.394;34.964;2022-10-26T18:32:53;100147.00;;;11.40;100.00
35045;BME280;21231;48.394;34.964;2022-10-26T18:35:39;100147.09;;;11.42;100.00